createdAt,value
2018-05-25T00:01:46.425Z,89.20
2018-05-25T00:04:13.425Z,89.40
2018-05-25T00:06:39.710Z,89.40
2018-05-25T00:09:06.730Z,89.40
2018-05-25T00:11:33.026Z,89.30
2018-05-25T00:13:59.278Z,89.40
2018-05-25T00:16:25.558Z,89.50
2018-05-25T00:18:52.541Z,89.80
2018-05-25T00:21:18.838Z,89.70
2018-05-25T00:23:45.829Z,89.90
2018-05-25T00:26:12.114Z,89.90
2018-05-25T00:28:39.226Z,90.00
2018-05-25T00:31:05.826Z,90.00
2018-05-25T00:33:32.082Z,90.10
2018-05-25T00:35:58.354Z,90.20
2018-05-25T00:38:24.602Z,90.20
2018-05-25T00:40:51.610Z,90.40
2018-05-25T00:43:17.982Z,90.40
2018-05-25T00:45:44.970Z,90.30
2018-05-25T00:48:12.258Z,90.40
2018-05-25T00:50:38.554Z,90.40
2018-05-25T00:53:04.882Z,90.40
2018-05-25T00:55:34.942Z,90.40
2018-05-25T00:58:01.226Z,90.50
2018-05-25T01:00:27.477Z,90.60
2018-05-25T01:02:53.770Z,90.80
2018-05-25T01:05:20.749Z,91.00
2018-05-25T01:07:47.046Z,91.00
2018-05-25T01:10:14.066Z,91.10
2018-05-25T01:12:40.345Z,91.00
2018-05-25T01:15:06.713Z,91.10
2018-05-25T01:17:32.994Z,91.00
2018-05-25T01:20:00.010Z,91.20
2018-05-25T01:22:26.300Z,91.20
2018-05-25T01:24:52.599Z,91.20
2018-05-25T01:27:19.631Z,91.20
2018-05-25T01:29:45.991Z,91.20
2018-05-25T01:32:12.285Z,91.20
2018-05-25T01:34:38.787Z,91.30
2018-05-25T01:37:05.029Z,91.40
2018-05-25T01:39:31.346Z,91.40
2018-05-25T01:41:57.601Z,91.30
2018-05-25T01:44:23.869Z,91.50
2018-05-25T01:46:50.122Z,91.60
2018-05-25T01:49:17.189Z,91.50
2018-05-25T01:51:43.451Z,91.50
2018-05-25T01:54:10.508Z,91.50
2018-05-25T01:56:36.761Z,91.50
2018-05-25T01:59:03.049Z,91.60
2018-05-25T02:01:29.306Z,91.60
2018-05-25T02:03:55.576Z,91.50
2018-05-25T02:06:21.845Z,91.50
2018-05-25T02:08:48.114Z,91.50
2018-05-25T02:11:14.603Z,91.70
2018-05-25T02:13:41.589Z,92.00
2018-05-25T02:16:07.866Z,92.00
2018-05-25T02:18:34.172Z,92.00
2018-05-25T02:21:01.182Z,92.00
2018-05-25T02:23:27.551Z,92.00
2018-05-25T02:25:54.573Z,92.10
2018-05-25T02:28:20.850Z,92.10
2018-05-25T02:30:47.168Z,92.10
2018-05-25T02:33:13.447Z,92.20
2018-05-25T02:35:39.751Z,92.10
2018-05-25T02:38:06.007Z,92.10
2018-05-25T02:40:32.413Z,92.20
2018-05-25T02:42:59.416Z,92.20
2018-05-25T02:45:26.687Z,92.30
2018-05-25T02:47:52.945Z,92.20
2018-05-25T02:50:19.976Z,92.30
2018-05-25T02:52:47.128Z,92.40
2018-05-25T02:55:14.155Z,92.30
2018-05-25T02:57:40.502Z,92.30
2018-05-25T03:00:07.587Z,92.60
2018-05-25T03:02:34.779Z,92.50
2018-05-25T03:05:01.074Z,92.50
2018-05-25T03:07:28.061Z,92.50
2018-05-25T03:09:54.428Z,92.50
2018-05-25T03:12:20.681Z,92.60
2018-05-25T03:14:47.120Z,92.60
2018-05-25T03:17:13.408Z,92.60
2018-05-25T03:19:39.700Z,92.60
2018-05-25T03:22:05.991Z,92.60
2018-05-25T03:24:32.358Z,92.70
2018-05-25T03:26:58.646Z,92.50
2018-05-25T03:29:24.999Z,92.60
2018-05-25T03:31:52.218Z,92.50
2018-05-25T03:34:18.752Z,92.40
2018-05-25T03:36:45.025Z,92.40
2018-05-25T03:39:12.094Z,92.20
2018-05-25T03:41:38.489Z,92.20
2018-05-25T03:44:04.744Z,92.40
2018-05-25T03:46:31.145Z,92.40
2018-05-25T03:48:57.407Z,92.50
2018-05-25T03:51:24.041Z,92.60
2018-05-25T03:53:51.033Z,92.80
2018-05-25T03:56:17.290Z,92.70
2018-05-25T03:58:55.665Z,92.70
2018-05-25T04:01:34.284Z,92.80
2018-05-25T04:04:00.510Z,92.80
2018-05-25T04:06:27.154Z,92.80
2018-05-25T04:08:53.398Z,92.80
2018-05-25T04:11:20.770Z,92.80
2018-05-25T04:13:47.115Z,92.80
2018-05-25T04:16:13.398Z,92.90
2018-05-25T04:18:39.658Z,92.80
2018-05-25T04:21:05.942Z,92.80
2018-05-25T04:23:33.202Z,92.70
2018-05-25T04:25:59.503Z,92.80
2018-05-25T04:28:25.834Z,92.60
2018-05-25T04:30:52.152Z,92.60
2018-05-25T04:33:18.497Z,92.60
2018-05-25T04:35:44.750Z,92.70
2018-05-25T04:38:11.125Z,92.60
2018-05-25T04:40:37.807Z,92.60
2018-05-25T04:43:04.444Z,92.50
2018-05-25T04:45:31.115Z,92.40
2018-05-25T04:47:59.273Z,92.40
2018-05-25T04:50:25.634Z,92.40
2018-05-25T04:52:52.659Z,92.50
2018-05-25T04:55:18.921Z,92.50
2018-05-25T04:57:45.288Z,92.40
2018-05-25T05:00:11.550Z,92.30
2018-05-25T05:02:39.073Z,92.20
2018-05-25T05:05:05.655Z,92.20
2018-05-25T05:07:33.958Z,92.10
2018-05-25T05:10:01.061Z,91.90
2018-05-25T05:12:27.354Z,91.90
2018-05-25T05:14:53.658Z,91.90
2018-05-25T05:17:20.426Z,91.90
2018-05-25T05:19:47.485Z,91.70
2018-05-25T05:22:13.779Z,91.70
2018-05-25T05:24:40.041Z,91.80
2018-05-25T05:27:07.065Z,91.80
2018-05-25T05:29:33.309Z,91.80
2018-05-25T05:31:59.631Z,91.80
2018-05-25T05:34:27.438Z,91.60
2018-05-25T05:36:53.706Z,91.60
2018-05-25T05:39:19.962Z,91.50
2018-05-25T05:41:46.364Z,91.50
2018-05-25T05:44:13.638Z,91.50
2018-05-25T05:46:39.990Z,91.40
2018-05-25T05:49:06.265Z,91.40
2018-05-25T05:51:32.514Z,91.30
2018-05-25T05:53:58.783Z,91.20
2018-05-25T05:56:25.773Z,91.00
2018-05-25T05:58:52.125Z,91.00
2018-05-25T06:01:18.387Z,90.90
2018-05-25T06:03:44.661Z,90.90
2018-05-25T06:06:11.098Z,90.90
2018-05-25T06:08:37.442Z,90.90
2018-05-25T06:11:03.983Z,90.80
2018-05-25T06:13:30.252Z,90.60
2018-05-25T06:15:56.518Z,90.60
2018-05-25T06:18:22.801Z,90.30
2018-05-25T06:20:49.203Z,90.40
2018-05-25T06:23:15.486Z,90.40
2018-05-25T06:25:41.731Z,90.20
2018-05-25T06:28:07.997Z,90.20
2018-05-25T06:30:34.241Z,90.00
2018-05-25T06:33:00.637Z,90.10
2018-05-25T06:35:27.214Z,90.00
2018-05-25T06:37:53.533Z,90.00
2018-05-25T06:40:19.786Z,89.80
2018-05-25T06:42:46.185Z,89.50
2018-05-25T06:45:12.430Z,89.20
2018-05-25T06:47:38.679Z,89.00
2018-05-25T06:50:05.236Z,88.90
2018-05-25T06:52:32.261Z,88.20
2018-05-25T06:54:58.749Z,88.20
2018-05-25T06:57:25.738Z,87.10
2018-05-25T06:59:52.002Z,87.00
2018-05-25T07:02:18.268Z,86.40
2018-05-25T07:04:44.565Z,86.40
2018-05-25T07:07:10.845Z,85.30
2018-05-25T07:09:37.926Z,85.30
2018-05-25T07:12:04.209Z,85.20
2018-05-25T07:14:30.657Z,84.60
2018-05-25T07:16:57.709Z,84.50
2018-05-25T07:19:24.836Z,84.50
2018-05-25T07:21:52.611Z,84.50
2018-05-25T07:24:19.817Z,84.50
2018-05-25T07:26:47.569Z,83.20
2018-05-25T07:29:13.883Z,83.20
2018-05-25T07:31:40.146Z,83.20
2018-05-25T07:34:06.438Z,82.40
2018-05-25T07:36:33.637Z,81.00
2018-05-25T07:39:00.806Z,81.00
2018-05-25T07:41:27.437Z,81.30
2018-05-25T07:43:54.490Z,82.00
2018-05-25T07:46:20.974Z,82.00
2018-05-25T07:48:47.991Z,81.90
2018-05-25T07:51:14.261Z,81.90
2018-05-25T07:53:40.705Z,81.10
2018-05-25T07:56:06.957Z,80.00
2018-05-25T07:58:33.342Z,78.70
2018-05-25T08:01:00.355Z,77.30
2018-05-25T08:03:26.599Z,77.30
2018-05-25T08:05:52.858Z,77.00
2018-05-25T08:08:19.134Z,76.60
2018-05-25T08:10:45.429Z,77.50
2018-05-25T08:13:12.065Z,77.50
2018-05-25T08:15:38.625Z,78.30
2018-05-25T08:18:04.910Z,77.80
2018-05-25T08:20:31.229Z,76.90
2018-05-25T08:22:57.507Z,76.10
2018-05-25T08:25:24.918Z,74.30
2018-05-25T08:27:51.186Z,74.30
2018-05-25T08:30:18.250Z,74.20
2018-05-25T08:32:45.229Z,74.30
2018-05-25T08:35:11.565Z,74.20
2018-05-25T08:37:37.834Z,74.30
2018-05-25T08:40:04.137Z,73.60
2018-05-25T08:42:30.401Z,73.60
2018-05-25T08:44:56.739Z,73.50
2018-05-25T08:47:22.993Z,73.10
2018-05-25T08:49:49.291Z,73.00
2018-05-25T08:52:15.534Z,72.50
2018-05-25T08:54:41.805Z,73.00
2018-05-25T08:57:08.110Z,71.70
2018-05-25T08:59:34.390Z,69.00
2018-05-25T09:02:00.646Z,71.40
2018-05-25T09:04:27.223Z,71.90
2018-05-25T09:06:53.482Z,71.20
2018-05-25T09:09:19.769Z,70.40
2018-05-25T09:11:46.049Z,69.40
2018-05-25T09:14:12.393Z,68.30
2018-05-25T09:16:38.673Z,68.50
2018-05-25T09:19:05.194Z,67.80
2018-05-25T09:21:31.488Z,66.00
2018-05-25T09:23:57.747Z,67.00
2018-05-25T09:26:24.260Z,65.80
2018-05-25T09:28:50.525Z,66.30
2018-05-25T09:31:16.799Z,66.50
2018-05-25T09:33:43.078Z,64.30
2018-05-25T09:36:09.353Z,64.60
2018-05-25T09:38:35.797Z,62.70
2018-05-25T09:41:02.078Z,63.20
2018-05-25T09:43:28.384Z,62.10
2018-05-25T09:45:54.658Z,62.70
2018-05-25T09:48:21.649Z,62.90
2018-05-25T09:50:47.940Z,62.90
2018-05-25T09:53:14.198Z,60.80
2018-05-25T09:55:40.553Z,62.90
2018-05-25T09:58:07.121Z,63.20
2018-05-25T10:00:33.425Z,63.20
2018-05-25T10:02:59.682Z,60.90
2018-05-25T10:05:25.930Z,61.60
2018-05-25T10:07:52.336Z,61.60
2018-05-25T10:10:18.594Z,61.50
2018-05-25T10:12:45.233Z,61.00
2018-05-25T10:15:12.447Z,58.50
2018-05-25T10:17:38.722Z,58.50
2018-05-25T10:20:06.095Z,60.70
2018-05-25T10:22:32.586Z,60.80
2018-05-25T10:24:58.848Z,61.10
2018-05-25T10:27:25.880Z,62.40
2018-05-25T10:29:52.134Z,62.40
2018-05-25T10:32:18.402Z,63.60
2018-05-25T10:34:44.673Z,62.30
2018-05-25T10:37:10.945Z,60.90
2018-05-25T10:39:37.193Z,60.30
2018-05-25T10:42:03.546Z,59.70
2018-05-25T10:44:30.002Z,59.00
2018-05-25T10:46:56.238Z,60.40
2018-05-25T10:49:22.566Z,59.60
2018-05-25T10:51:48.874Z,59.10
2018-05-25T10:54:15.146Z,59.10
2018-05-25T10:56:42.138Z,56.90
2018-05-25T10:59:08.446Z,56.90
2018-05-25T11:01:35.443Z,57.30
2018-05-25T11:04:01.725Z,57.30
2018-05-25T11:06:28.133Z,57.90
2018-05-25T11:08:55.007Z,57.70
2018-05-25T11:11:22.025Z,57.60
2018-05-25T11:13:49.071Z,56.90
2018-05-25T11:16:15.345Z,56.90
2018-05-25T11:18:41.825Z,56.50
2018-05-25T11:21:08.924Z,56.10
2018-05-25T11:23:35.323Z,57.10
2018-05-25T11:26:01.826Z,56.20
2018-05-25T11:28:28.107Z,56.90
2018-05-25T11:30:55.620Z,55.60
2018-05-25T11:33:22.585Z,55.50
2018-05-25T11:35:49.088Z,54.30
2018-05-25T11:38:15.466Z,54.30
2018-05-25T11:40:41.797Z,55.20
2018-05-25T11:43:08.055Z,53.70
2018-05-25T11:45:34.341Z,54.00
2018-05-25T11:48:00.653Z,52.90
2018-05-25T11:50:27.270Z,52.00
2018-05-25T11:52:53.514Z,52.00
2018-05-25T11:55:20.265Z,52.50
2018-05-25T11:57:46.529Z,52.20
2018-05-25T12:00:12.866Z,51.00
2018-05-25T12:02:39.216Z,50.80
2018-05-25T12:05:05.518Z,49.40
2018-05-25T12:07:31.811Z,50.40
2018-05-25T12:09:58.129Z,49.90
2018-05-25T12:12:25.270Z,49.50
2018-05-25T12:14:52.460Z,49.90
2018-05-25T12:17:19.813Z,48.80
2018-05-25T12:19:46.281Z,48.80
2018-05-25T12:22:12.585Z,47.90
2018-05-25T12:24:38.853Z,47.70
2018-05-25T12:27:05.898Z,48.30
2018-05-25T12:29:32.164Z,48.30
2018-05-25T12:31:58.438Z,47.60
2018-05-25T12:34:24.681Z,45.00
2018-05-25T12:36:51.082Z,47.70
2018-05-25T12:39:18.067Z,47.40
2018-05-25T12:41:44.321Z,47.40
2018-05-25T12:44:10.574Z,48.40
2018-05-25T12:46:36.849Z,48.30
2018-05-25T12:49:03.161Z,49.00
2018-05-25T12:51:29.698Z,48.50
2018-05-25T12:53:56.678Z,47.50
2018-05-25T12:56:22.965Z,47.40
2018-05-25T12:58:49.254Z,47.40
2018-05-25T13:01:15.516Z,48.00
2018-05-25T13:03:42.529Z,47.00
2018-05-25T13:06:08.815Z,46.90
2018-05-25T13:08:35.281Z,45.70
2018-05-25T13:11:01.556Z,45.00
2018-05-25T13:13:28.793Z,44.50
2018-05-25T13:15:55.040Z,43.90
2018-05-25T13:18:21.457Z,42.80
2018-05-25T13:20:47.757Z,43.20
2018-05-25T13:23:14.026Z,41.70
2018-05-25T13:25:40.273Z,41.30
2018-05-25T13:28:06.574Z,41.10
2018-05-25T13:30:33.090Z,41.60
2018-05-25T13:32:59.449Z,41.50
2018-05-25T13:35:25.696Z,40.40
2018-05-25T13:37:51.958Z,42.30
2018-05-25T13:40:20.242Z,41.30
2018-05-25T13:42:46.575Z,40.10
2018-05-25T13:45:12.834Z,39.60
2018-05-25T13:47:39.357Z,40.40
2018-05-25T13:50:05.644Z,39.20
2018-05-25T13:52:32.098Z,37.30
2018-05-25T13:54:58.361Z,37.70
2018-05-25T13:57:24.609Z,34.50
2018-05-25T13:59:50.890Z,33.30
2018-05-25T14:02:17.149Z,29.80
2018-05-25T14:04:43.494Z,29.30
2018-05-25T14:07:09.745Z,29.80
2018-05-25T14:09:36.047Z,28.60
2018-05-25T14:12:02.327Z,26.50
2018-05-25T14:14:28.656Z,26.40
2018-05-25T14:16:54.965Z,25.80
2018-05-25T14:19:21.261Z,25.00
2018-05-25T14:21:47.555Z,25.90
2018-05-25T14:24:14.669Z,26.70
2018-05-25T14:26:40.938Z,26.70
2018-05-25T14:29:07.214Z,26.90
2018-05-25T14:31:33.533Z,24.90
2018-05-25T14:33:59.813Z,26.20
2018-05-25T14:36:26.118Z,27.10
2018-05-25T14:38:52.419Z,27.70
2018-05-25T14:41:18.709Z,27.20
2018-05-25T14:43:46.730Z,27.60
2018-05-25T14:46:12.995Z,30.10
2018-05-25T14:48:39.477Z,32.70
2018-05-25T14:51:05.736Z,30.80
2018-05-25T14:53:32.804Z,28.00
2018-05-25T14:55:59.075Z,28.40
2018-05-25T14:58:25.365Z,27.40
2018-05-25T15:00:51.714Z,26.30
2018-05-25T15:03:17.975Z,26.20
2018-05-25T15:05:44.251Z,27.20
2018-05-25T15:08:10.511Z,25.60
2018-05-25T15:10:36.794Z,24.50
2018-05-25T15:13:03.149Z,25.80
2018-05-25T15:15:29.434Z,24.70
2018-05-25T15:17:55.696Z,24.30
2018-05-25T15:20:21.966Z,25.40
2018-05-25T15:22:48.301Z,25.70
2018-05-25T15:25:15.000Z,23.90
2018-05-25T15:27:41.430Z,24.00
2018-05-25T15:30:07.724Z,24.80
2018-05-25T15:32:34.114Z,24.40
2018-05-25T15:35:00.315Z,24.90
2018-05-25T15:37:26.684Z,23.90
2018-05-25T15:39:52.945Z,25.10
2018-05-25T15:42:19.222Z,25.40
2018-05-25T15:44:45.502Z,25.60
2018-05-25T15:47:11.814Z,24.50
2018-05-25T15:49:38.091Z,24.50
2018-05-25T15:52:04.382Z,25.00
2018-05-25T15:54:30.658Z,24.90
2018-05-25T15:56:56.998Z,26.00
2018-05-25T15:59:23.374Z,25.50
2018-05-25T16:01:49.650Z,26.40
2018-05-25T16:04:15.962Z,28.00
2018-05-25T16:06:42.317Z,28.90
2018-05-25T16:09:08.626Z,30.10
2018-05-25T16:11:34.889Z,29.30
2018-05-25T16:14:01.175Z,29.00
2018-05-25T16:16:27.451Z,28.90
2018-05-25T16:18:53.717Z,27.90
2018-05-25T16:21:20.038Z,27.70
2018-05-25T16:23:46.485Z,27.70
2018-05-25T16:26:12.743Z,27.60
2018-05-25T16:28:39.009Z,27.20
2018-05-25T16:31:05.318Z,27.50
2018-05-25T16:33:31.650Z,26.90
2018-05-25T16:35:57.942Z,30.00
2018-05-25T16:38:24.185Z,32.10
2018-05-25T16:40:50.457Z,35.30
2018-05-25T16:43:16.725Z,37.50
2018-05-25T16:45:43.874Z,36.80
2018-05-25T16:48:10.130Z,36.80
2018-05-25T16:50:36.405Z,39.80
2018-05-25T16:53:02.685Z,41.70
2018-05-25T16:55:28.949Z,42.40
2018-05-25T16:57:55.209Z,43.70
2018-05-25T17:00:21.489Z,42.70
2018-05-25T17:02:47.740Z,43.50
2018-05-25T17:05:14.134Z,43.70
2018-05-25T17:07:43.127Z,45.90
2018-05-25T17:10:09.485Z,45.90
2018-05-25T17:12:36.523Z,46.60
2018-05-25T17:15:02.992Z,46.10
2018-05-25T17:17:29.250Z,46.80
2018-05-25T17:19:55.515Z,47.30
2018-05-25T17:22:21.818Z,46.10
2018-05-25T17:24:48.070Z,47.70
2018-05-25T17:27:14.441Z,45.80
2018-05-25T17:29:40.690Z,47.10
2018-05-25T17:32:06.938Z,45.80
2018-05-25T17:34:34.007Z,48.10
2018-05-25T17:37:00.278Z,48.00
2018-05-25T17:39:27.259Z,48.80
2018-05-25T17:41:53.591Z,49.40
2018-05-25T17:44:19.837Z,48.40
2018-05-25T17:46:46.091Z,49.10
2018-05-25T17:49:12.353Z,48.40
2018-05-25T17:51:38.629Z,50.00
2018-05-25T17:54:04.914Z,49.80
2018-05-25T17:56:31.185Z,48.50
2018-05-25T17:58:59.294Z,49.40
2018-05-25T18:01:26.329Z,53.00
2018-05-25T18:03:52.582Z,53.00
2018-05-25T18:06:19.606Z,51.30
2018-05-25T18:08:45.863Z,51.20
2018-05-25T18:11:12.873Z,52.20
2018-05-25T18:13:39.122Z,52.20
2018-05-25T18:16:05.390Z,52.80
2018-05-25T18:18:32.374Z,55.10
2018-05-25T18:20:58.640Z,55.10
2018-05-25T18:23:24.911Z,55.10
2018-05-25T18:25:51.186Z,56.40
2018-05-25T18:28:17.446Z,55.90
2018-05-25T18:30:44.434Z,56.40
2018-05-25T18:33:10.721Z,56.20
2018-05-25T18:35:36.957Z,55.80
2018-05-25T18:38:03.994Z,56.80
2018-05-25T18:40:30.241Z,56.80
2018-05-25T18:42:56.506Z,57.10
2018-05-25T18:45:22.863Z,57.60
2018-05-25T18:47:49.226Z,57.90
2018-05-25T18:50:15.510Z,58.50
2018-05-25T18:52:41.790Z,59.10
2018-05-25T18:55:08.144Z,59.40
2018-05-25T18:57:34.451Z,59.40
2018-05-25T19:00:01.085Z,59.60
2018-05-25T19:02:27.486Z,60.00
2018-05-25T19:04:53.812Z,60.90
2018-05-25T19:07:20.308Z,60.90
2018-05-25T19:09:47.111Z,61.90
2018-05-25T19:12:14.178Z,62.20
2018-05-25T19:14:40.422Z,62.30
2018-05-25T19:17:06.713Z,62.40
2018-05-25T19:19:34.550Z,63.80
2018-05-25T19:22:00.897Z,63.90
2018-05-25T19:24:27.159Z,64.10
2018-05-25T19:26:53.588Z,64.20
2018-05-25T19:29:19.845Z,65.50
2018-05-25T19:31:46.237Z,65.50
2018-05-25T19:34:12.517Z,66.20
2018-05-25T19:36:39.677Z,66.60
2018-05-25T19:39:06.458Z,67.20
2018-05-25T19:41:33.114Z,67.00
2018-05-25T19:43:59.689Z,67.60
2018-05-25T19:46:26.295Z,68.30
2018-05-25T19:48:52.586Z,68.80
2018-05-25T19:51:19.088Z,69.20
2018-05-25T19:53:45.402Z,69.50
2018-05-25T19:56:11.637Z,70.50
2018-05-25T19:58:37.905Z,70.70
2018-05-25T20:01:04.926Z,71.20
2018-05-25T20:03:31.269Z,71.20
2018-05-25T20:05:57.514Z,71.90
2018-05-25T20:08:23.761Z,72.50
2018-05-25T20:10:50.030Z,73.20
2018-05-25T20:13:16.334Z,73.60
2018-05-25T20:15:43.330Z,74.20
2018-05-25T20:18:09.610Z,74.20
2018-05-25T20:20:36.598Z,74.60
2018-05-25T20:23:02.886Z,74.50
2018-05-25T20:25:29.881Z,75.30
2018-05-25T20:27:56.169Z,75.20
2018-05-25T20:30:23.165Z,75.50
2018-05-25T20:32:49.422Z,75.50
2018-05-25T20:35:15.726Z,75.80
2018-05-25T20:37:41.997Z,74.80
2018-05-25T20:40:08.242Z,75.20
2018-05-25T20:42:35.253Z,75.50
2018-05-25T20:45:01.511Z,75.40
2018-05-25T20:47:28.542Z,75.20
2018-05-25T20:49:54.984Z,75.20
2018-05-25T20:52:21.237Z,74.70
2018-05-25T20:54:47.654Z,74.60
2018-05-25T20:57:13.898Z,75.30
2018-05-25T20:59:40.925Z,76.00
2018-05-25T21:02:07.210Z,76.00
2018-05-25T21:04:33.462Z,76.80
2018-05-25T21:06:59.809Z,76.10
2018-05-25T21:09:26.058Z,75.80
2018-05-25T21:11:52.385Z,76.00
2018-05-25T21:14:18.623Z,75.90
2018-05-25T21:16:44.882Z,76.40
2018-05-25T21:19:12.029Z,76.40
2018-05-25T21:21:39.098Z,77.00
2018-05-25T21:24:05.675Z,77.00
2018-05-25T21:26:32.199Z,76.30
2018-05-25T21:28:59.242Z,76.10
2018-05-25T21:31:25.521Z,75.90
2018-05-25T21:33:51.774Z,76.20
2018-05-25T21:36:18.070Z,75.50
2018-05-25T21:38:44.310Z,76.40
2018-05-25T21:41:10.659Z,76.10
2018-05-25T21:43:37.185Z,77.00
2018-05-25T21:46:03.490Z,77.20
2018-05-25T21:48:29.743Z,77.20
2018-05-25T21:50:56.110Z,77.50
2018-05-25T21:53:22.382Z,77.30
2018-05-25T21:55:48.757Z,77.50
2018-05-25T21:58:15.057Z,77.50
2018-05-25T22:00:41.401Z,77.10
2018-05-25T22:03:07.682Z,77.30
2018-05-25T22:05:34.075Z,77.70
2018-05-25T22:08:01.330Z,78.10
2018-05-25T22:10:27.608Z,78.00
2018-05-25T22:12:53.892Z,78.30
2018-05-25T22:15:20.202Z,78.20
2018-05-25T22:17:47.553Z,78.50
2018-05-25T22:20:13.805Z,79.00
2018-05-25T22:22:40.151Z,79.80
2018-05-25T22:25:06.438Z,79.60
2018-05-25T22:27:32.731Z,79.40
2018-05-25T22:29:59.074Z,79.50
2018-05-25T22:32:25.363Z,79.80
2018-05-25T22:34:51.638Z,80.20
2018-05-25T22:37:18.637Z,80.60
2018-05-25T22:39:44.926Z,80.50
2018-05-25T22:42:10.986Z,80.60
2018-05-25T22:44:49.310Z,80.90
2018-05-25T22:47:27.871Z,81.30
2018-05-25T22:50:07.126Z,81.60
2018-05-25T22:52:39.334Z,82.00
2018-05-25T22:55:11.549Z,82.00
2018-05-25T22:57:38.525Z,82.50
2018-05-25T23:00:04.803Z,82.50
2018-05-25T23:02:31.066Z,82.30
2018-05-25T23:04:57.349Z,82.40
2018-05-25T23:07:23.602Z,82.50
2018-05-25T23:09:50.035Z,81.80
2018-05-25T23:12:16.304Z,82.50
2018-05-25T23:14:42.581Z,82.70
2018-05-25T23:17:08.833Z,83.20
2018-05-25T23:19:35.085Z,83.30
2018-05-25T23:22:02.217Z,83.60
2018-05-25T23:24:28.483Z,83.60
2018-05-25T23:26:54.814Z,83.20
2018-05-25T23:29:21.053Z,83.30
2018-05-25T23:31:47.439Z,83.40
2018-05-25T23:34:13.667Z,84.00
2018-05-25T23:36:40.099Z,84.20
2018-05-25T23:39:06.458Z,84.40
2018-05-25T23:41:33.477Z,84.90
2018-05-25T23:44:00.098Z,84.90
2018-05-25T23:46:26.394Z,85.40
2018-05-25T23:48:52.661Z,84.90
2018-05-25T23:51:18.962Z,85.00
2018-05-25T23:53:45.201Z,84.90
2018-05-25T23:56:12.313Z,85.20
2018-05-25T23:58:38.651Z,85.20
